Wednesday, September 03, 2014
04:46 UTC
  |  Log In   |  Register Free
Airport Search:

New River Valley Airport
(KPSK)

New River Valley Airport Diagram
No Airport Diagram Available

FAA data valid effective July 24, 2014 until September 18, 2014 (unless otherwise noted).

 
 
 
 
 
 
 
 
 
 
 
 
 
 

Current Aviation Weather for New River Valley Airport (KPSK)

The most recent METAR observation for KPSK was updated at: 0255 UTC
METAR Summary (Translated METAR)
KPSK
030255Z AUTO 25006KT 10SM -RA SCT070 BKN090 BKN110 21/21 A3014 RMK AO2 LTG DSNT E AND SE T02100206
KBCB
(13.6 nm NE from KPSK)
030235Z AUTO 27005G21KT 4SM +RA SCT004 BKN022 OVC043 20/20 A3012 RMK AO2 P0039 TSNO
TAF Summary (Translated TAF)
KBCB
(13.6 nm NE from KPSK)
030345Z 0304/0324 00000KT P6SM -SHRA SCT025 OVC080 FM030600 00000KT 4SM BR SCT050 TEMPO 0308/0312 2SM BR FM031400 27005KT P6SM SCT050
  Airport Weather Conditions for KPSK

 Current Weather at PSK
69° F
Rain
West winds at 3.5 mph
PSK NOAA Radar

Pressure: 30.11 in
Humidity: 100%
Wind: West at 3.5 MPH (3 KT)
Dew Point: 68.9°F
Visibility: 10.00 mi


Airport Weather Forecast for KPSK

Translated METAR and TAF for KPSK
Translated METAR for KPSK (0440 UTC 03 September 2014)
found at http://aviationweather.gov/adds/metars/
 
METAR text: KPSK 030435Z AUTO 21005KT 10SM -RA SCT110 20/20 A3012 RMK AO2 T02030203
Conditions at: KPSK (DUBLIN/NEW RIV , VA, US) observed 0435 UTC 03 September 2014
Temperature: 20.3°C (69°F)
Dewpoint: 20.3°C (69°F) [RH = 100%]
Pressure (altimeter): 30.12 inches Hg (1020.1 mb)
Winds: from the SSW (210 degrees) at 6 MPH (5 knots; 2.6 m/s)
Visibility: 10 or more miles (16+ km)
Ceiling: at least 12,000 feet AGL
Clouds: scattered clouds at 11000 feet AGL
Weather: -RA  (light rain)
Translated TAF for KPSK

There is no translated TAF available for this airport

Find All Airport Services Find A Hotel Find A Rental Car Find A Golf Course Find A Restaurant $100 Hamburger



FBO's on the Field
FBO Company Facility Photos Services Transportation Aviation Fuel Prices: Prices include tax
Catering Weather Repair Courtesy Rental Type 100LL JetA JetA+ MOGAS 8087
 
New River Valley Airport

This FBO has not yet been rated
FS:Avfuel
Last Updated: Aug-11
Login to update fuel prices
SS:
Contact New River Valley AirportMore FBO Information
 
Add another FBO Facility Photos Catering Weather Repair Courtesy Rental Type 100LL JetA JetA+ MOGAS 8087
Services Transportation Aviation Fuel Prices: Prices include tax


GlobalAir.com Airport Resource Center model-print
model-print
model-print
model-print